Wetterdaten: Woche 12.06.06 - 18.06.06 (KW24)
Datum Zeit Temperatur Luftfeuchte Luftdruck Niederschlag Wind Richtung Sonne Solar Taupunkt Windchill
12.06.2006 00:00 17.4 C 48 % 1023.5 hPa 0.0 l/m 2.3 km/h (1 Bft) O 0.00 h 0 W/m 6.4 C 17.4 C
12.06.2006 01:00 15.8 C 55 % 1023.7 hPa 0.0 l/m 0.0 km/h (0 Bft) N 0.00 h 0 W/m 6.8 C 15.8 C
12.06.2006 02:00 14.1 C 66 % 1024.2 hPa 0.0 l/m 0.0 km/h (0 Bft) N 0.00 h 0 W/m 7.7 C 14.1 C
12.06.2006 03:00 12.7 C 74 % 1024.1 hPa 0.0 l/m 0.0 km/h (0 Bft) N 0.00 h 0 W/m 8.2 C 12.7 C
12.06.2006 04:00 11.7 C 79 % 1024.7 hPa 0.0 l/m 0.0 km/h (0 Bft) N 0.00 h 0 W/m 8.2 C 11.7 C
12.06.2006 05:00 11.2 C 81 % 1024.8 hPa 0.0 l/m 0.0 km/h (0 Bft) N 0.10 h 14 W/m 8.0 C 11.2 C
12.06.2006 06:00 11.1 C 82 % 1025.3 hPa 0.0 l/m 0.0 km/h (0 Bft) N 0.17 h 66 W/m 8.2 C 11.1 C
12.06.2006 07:00 12.6 C 77 % 1025.8 hPa 0.0 l/m 0.0 km/h (0 Bft) N 0.87 h 239 W/m 8.5 C 12.6 C
12.06.2006 08:00 14.9 C 67 % 1025.9 hPa 0.0 l/m 0.0 km/h (0 Bft) N 1.00 h 404 W/m 8.9 C 14.9 C
12.06.2006 09:00 17.7 C 55 % 1025.2 hPa 0.0 l/m 0.0 km/h (0 Bft) N 1.00 h 497 W/m 8.7 C 17.7 C
12.06.2006 10:00 20.4 C 51 % 1024.2 hPa 0.0 l/m 2.6 km/h (1 Bft) O-SO 1.00 h 659 W/m 9.9 C 20.4 C
12.06.2006 11:00 22.5 C 47 % 1023.8 hPa 0.0 l/m 4.8 km/h (1 Bft) S-SO 1.00 h 748 W/m 10.5 C 22.5 C
12.06.2006 12:00 24.6 C 41 % 1023.0 hPa 0.0 l/m 5.1 km/h (1 Bft) W-NW 1.00 h 803 W/m 10.5 C 24.6 C
12.06.2006 13:00 26.1 C 35 % 1022.3 hPa 0.0 l/m 9.8 km/h (2 Bft) W-NW 1.00 h 815 W/m 9.3 C 26.1 C
12.06.2006 14:00 27.3 C 33 % 1022.2 hPa 0.0 l/m 6.2 km/h (2 Bft) NW 1.00 h 802 W/m 9.7 C 27.3 C
12.06.2006 15:00 28.4 C 31 % 1021.6 hPa 0.0 l/m 0.9 km/h (0 Bft) NW 1.00 h 746 W/m 9.8 C 28.4 C
12.06.2006 16:00 28.8 C 22 % 1021.0 hPa 0.0 l/m 2.3 km/h (1 Bft) W-NW 1.00 h 654 W/m 5.0 C 28.8 C
12.06.2006 17:00 29.7 C 25 % 1020.9 hPa 0.0 l/m 1.2 km/h (1 Bft) O-SO 1.00 h 534 W/m 7.3 C 29.7 C
12.06.2006 18:00 29.4 C 27 % 1020.2 hPa 0.0 l/m 0.6 km/h (0 Bft) O-SO 1.00 h 395 W/m 8.4 C 29.4 C
12.06.2006 19:00 28.3 C 33 % 1020.0 hPa 0.0 l/m 5.4 km/h (1 Bft) O-SO 1.00 h 244 W/m 10.4 C 28.3 C
12.06.2006 20:00 26.3 C 38 % 1020.3 hPa 0.0 l/m 6.7 km/h (2 Bft) O-SO 0.80 h 85 W/m 11.0 C 26.3 C
12.06.2006 21:00 22.7 C 53 % 1021.2 hPa 0.0 l/m 1.2 km/h (1 Bft) O-SO 0.23 h 16 W/m 12.4 C 22.7 C
12.06.2006 22:00 20.0 C 63 % 1022.1 hPa 0.0 l/m 0.0 km/h (0 Bft) N 0.00 h 0 W/m 12.8 C 20.0 C
12.06.2006 23:00 18.4 C 67 % 1022.3 hPa 0.0 l/m 0.1 km/h (0 Bft) N 0.00 h 0 W/m 12.2 C 18.4 C
13.06.2006 00:00 16.9 C 72 % 1022.5 hPa 0.0 l/m 0.1 km/h (0 Bft) O-SO 0.00 h 0 W/m 11.8 C 16.9 C
13.06.2006 01:00 15.9 C 77 % 1022.6 hPa 0.0 l/m 0.3 km/h (0 Bft) O-SO 0.00 h 0 W/m 11.8 C 15.9 C
13.06.2006 02:00 14.9 C 83 % 1022.7 hPa 0.0 l/m 0.0 km/h (0 Bft) N 0.00 h 0 W/m 12.0 C 14.9 C
13.06.2006 03:00 14.2 C 86 % 1022.8 hPa 0.0 l/m 0.3 km/h (0 Bft) O-SO 0.00 h 0 W/m 11.8 C 14.2 C
13.06.2006 04:00 13.5 C 88 % 1023.7 hPa 0.0 l/m 0.0 km/h (0 Bft) N 0.00 h 0 W/m 11.4 C 13.5 C
13.06.2006 05:00 12.9 C 92 % 1024.0 hPa 0.0 l/m 0.0 km/h (0 Bft) N 0.03 h 14 W/m 11.6 C 12.9 C
13.06.2006 06:00 12.9 C 88 % 1024.0 hPa 0.0 l/m 0.0 km/h (0 Bft) N 0.20 h 64 W/m 11.0 C 12.9 C
13.06.2006 07:00 14.3 C 84 % 1023.9 hPa 0.0 l/m 0.0 km/h (0 Bft) N 0.92 h 220 W/m 11.6 C 14.3 C
13.06.2006 08:00 16.5 C 76 % 1023.6 hPa 0.0 l/m 0.0 km/h (0 Bft) O-SO 1.00 h 374 W/m 12.2 C 16.5 C
13.06.2006 09:00 19.9 C 64 % 1023.1 hPa 0.0 l/m 1.3 km/h (1 Bft) O-SO 1.02 h 490 W/m 12.9 C 19.9 C
13.06.2006 10:00 22.3 C 56 % 1022.8 hPa 0.0 l/m 0.3 km/h (0 Bft) O-SO 0.98 h 639 W/m 13.0 C 22.3 C
13.06.2006 11:00 24.1 C 50 % 1022.0 hPa 0.0 l/m 0.1 km/h (0 Bft) N 1.00 h 731 W/m 13.1 C 24.1 C
13.06.2006 12:00 25.8 C 47 % 1021.3 hPa 0.0 l/m 1.7 km/h (1 Bft) W-NW 1.00 h 789 W/m 13.5 C 25.8 C
13.06.2006 13:00 27.4 C 41 % 1020.3 hPa 0.0 l/m 1.3 km/h (1 Bft) NW 1.02 h 812 W/m 12.9 C 27.4 C
13.06.2006 14:00 28.6 C 36 % 1019.8 hPa 0.0 l/m 1.8 km/h (1 Bft) W-NW 1.00 h 801 W/m 11.9 C 28.6 C
13.06.2006 15:00 29.0 C 36 % 1018.9 hPa 0.0 l/m 2.4 km/h (1 Bft) W-NW 0.73 h 592 W/m 12.3 C 29.0 C
13.06.2006 16:00 29.2 C 36 % 1018.6 hPa 0.0 l/m 0.5 km/h (0 Bft) NW 0.83 h 567 W/m 12.5 C 29.2 C
13.06.2006 17:00 30.3 C 33 % 1017.7 hPa 0.0 l/m 0.6 km/h (0 Bft) NW 1.00 h 543 W/m 12.1 C 30.3 C
13.06.2006 18:00 30.4 C 31 % 1016.8 hPa 0.0 l/m 0.1 km/h (0 Bft) N 1.00 h 385 W/m 11.3 C 30.4 C
13.06.2006 19:00 29.5 C 32 % 1016.7 hPa 0.0 l/m 0.6 km/h (0 Bft) O-SO 1.00 h 220 W/m 10.8 C 29.5 C
13.06.2006 20:00 27.0 C 41 % 1017.0 hPa 0.0 l/m 0.0 km/h (0 Bft) N 0.47 h 62 W/m 12.6 C 27.0 C
13.06.2006 21:00 22.7 C 59 % 1017.6 hPa 0.0 l/m 0.0 km/h (0 Bft) N 0.22 h 13 W/m 14.2 C 22.7 C
13.06.2006 22:00 20.6 C 63 % 1018.6 hPa 0.0 l/m 0.0 km/h (0 Bft) N 0.00 h 0 W/m 13.4 C 20.6 C
13.06.2006 23:00 19.2 C 68 % 1019.1 hPa 0.0 l/m 0.0 km/h (0 Bft) N 0.00 h 0 W/m 13.2 C 19.2 C
14.06.2006 00:00 18.1 C 73 % 1019.2 hPa 0.0 l/m 0.9 km/h (0 Bft) O 0.00 h 0 W/m 13.1 C 18.1 C
14.06.2006 01:00 17.1 C 77 % 1019.3 hPa 0.0 l/m 0.9 km/h (0 Bft) O 0.00 h 0 W/m 13.0 C 17.1 C
14.06.2006 02:00 16.2 C 81 % 1019.5 hPa 0.0 l/m 1.1 km/h (1 Bft) O-SO 0.00 h 0 W/m 12.8 C 16.2 C
14.06.2006 03:00 15.4 C 87 % 1019.6 hPa 0.0 l/m 0.4 km/h (0 Bft) N 0.00 h 0 W/m 13.1 C 15.4 C
14.06.2006 04:00 14.7 C 88 % 1019.7 hPa 0.0 l/m 0.3 km/h (0 Bft) N 0.00 h 0 W/m 12.6 C 14.7 C
14.06.2006 05:00 14.3 C 87 % 1019.7 hPa 0.0 l/m 0.6 km/h (0 Bft) O 0.07 h 13 W/m 12.3 C 14.3 C
14.06.2006 06:00 14.3 C 88 % 1019.7 hPa 0.0 l/m 0.0 km/h (0 Bft) N 0.17 h 60 W/m 12.3 C 14.3 C
14.06.2006 07:00 15.4 C 85 % 1019.6 hPa 0.0 l/m 0.0 km/h (0 Bft) N 0.93 h 197 W/m 12.8 C 15.4 C
14.06.2006 08:00 17.1 C 78 % 1019.3 hPa 0.0 l/m 0.0 km/h (0 Bft) N 0.97 h 358 W/m 13.3 C 17.1 C
14.06.2006 09:00 19.8 C 67 % 1018.4 hPa 0.0 l/m 0.0 km/h (0 Bft) N 1.00 h 499 W/m 13.5 C 19.8 C
14.06.2006 10:00 22.7 C 58 % 1017.6 hPa 0.0 l/m 0.0 km/h (0 Bft) N 1.02 h 637 W/m 13.9 C 22.7 C
14.06.2006 11:00 25.0 C 53 % 1016.9 hPa 0.0 l/m 1.0 km/h (0 Bft) SO 0.98 h 736 W/m 14.6 C 25.0 C
14.06.2006 12:00 27.0 C 43 % 1016.0 hPa 0.0 l/m 3.1 km/h (1 Bft) W-NW 1.02 h 790 W/m 13.4 C 27.0 C
14.06.2006 13:00 28.7 C 38 % 1015.5 hPa 0.0 l/m 1.7 km/h (1 Bft) NW 0.98 h 802 W/m 12.8 C 28.7 C
14.06.2006 14:00 29.6 C 34 % 1014.7 hPa 0.0 l/m 4.8 km/h (1 Bft) NO 0.90 h 731 W/m 12.0 C 29.6 C
14.06.2006 15:00 30.4 C 31 % 1014.4 hPa 0.0 l/m 2.2 km/h (1 Bft) W 0.97 h 739 W/m 11.4 C 30.4 C
14.06.2006 16:00 31.1 C 28 % 1013.4 hPa 0.0 l/m 3.3 km/h (1 Bft) W-NW 1.02 h 634 W/m 10.1 C 31.1 C
14.06.2006 17:00 31.5 C 26 % 1013.4 hPa 0.0 l/m 4.3 km/h (1 Bft) W-NW 1.00 h 509 W/m 9.4 C 31.5 C
14.06.2006 18:00 31.5 C 31 % 1013.1 hPa 0.0 l/m 2.0 km/h (1 Bft) W-NW 1.00 h 366 W/m 12.2 C 31.5 C
14.06.2006 19:00 30.8 C 32 % 1013.1 hPa 0.0 l/m 0.0 km/h (0 Bft) N 1.00 h 218 W/m 11.9 C 30.8 C
14.06.2006 20:00 27.3 C 47 % 1013.9 hPa 0.0 l/m 0.5 km/h (0 Bft) O-SO 0.17 h 53 W/m 14.8 C 27.3 C
14.06.2006 21:00 23.5 C 57 % 1014.4 hPa 0.0 l/m 3.4 km/h (1 Bft) O-SO 0.07 h 11 W/m 14.4 C 23.5 C
14.06.2006 22:00 21.1 C 65 % 1015.3 hPa 0.0 l/m 1.8 km/h (1 Bft) O-SO 0.00 h 0 W/m 14.2 C 21.1 C
14.06.2006 23:00 19.6 C 70 % 1015.9 hPa 0.0 l/m 1.6 km/h (1 Bft) O-SO 0.00 h 0 W/m 14.0 C 19.6 C
15.06.2006 00:00 18.5 C 73 % 1016.0 hPa 0.0 l/m 0.8 km/h (0 Bft) O-SO 0.00 h 0 W/m 13.6 C 18.5 C
15.06.2006 01:00 17.4 C 79 % 1016.2 hPa 0.0 l/m 0.3 km/h (0 Bft) O 0.00 h 0 W/m 13.8 C 17.4 C
15.06.2006 02:00 16.5 C 83 % 1016.3 hPa 0.0 l/m 0.0 km/h (0 Bft) N 0.00 h 0 W/m 13.7 C 16.5 C
15.06.2006 03:00 15.8 C 86 % 1016.4 hPa 0.0 l/m 0.0 km/h (0 Bft) N 0.00 h 0 W/m 13.4 C 15.8 C
15.06.2006 04:00 15.3 C 88 % 1016.5 hPa 0.0 l/m 0.0 km/h (0 Bft) N 0.00 h 0 W/m 13.4 C 15.3 C
15.06.2006 05:00 15.0 C 91 % 1016.5 hPa 0.0 l/m 0.0 km/h (0 Bft) N 0.07 h 13 W/m 13.4 C 15.0 C
15.06.2006 06:00 15.1 C 89 % 1017.2 hPa 0.0 l/m 0.0 km/h (0 Bft) N 0.17 h 61 W/m 13.2 C 15.1 C
15.06.2006 07:00 16.1 C 85 % 1017.4 hPa 0.0 l/m 0.0 km/h (0 Bft) N 0.97 h 201 W/m 13.6 C 16.1 C
15.06.2006 08:00 18.0 C 78 % 1017.1 hPa 0.0 l/m 0.0 km/h (0 Bft) N 1.00 h 349 W/m 14.0 C 18.0 C
15.06.2006 09:00 21.1 C 66 % 1016.7 hPa 0.0 l/m 0.1 km/h (0 Bft) N 1.00 h 515 W/m 14.5 C 21.1 C
15.06.2006 10:00 23.6 C 55 % 1016.4 hPa 0.0 l/m 0.7 km/h (0 Bft) S-SO 0.90 h 553 W/m 14.0 C 23.6 C
15.06.2006 11:00 25.4 C 53 % 1016.2 hPa 0.0 l/m 0.2 km/h (0 Bft) N 1.00 h 625 W/m 15.1 C 25.4 C
15.06.2006 12:00 26.9 C 42 % 1016.0 hPa 0.0 l/m 2.1 km/h (1 Bft) W-NW 1.02 h 715 W/m 12.8 C 26.9 C
15.06.2006 13:00 28.1 C 35 % 1015.1 hPa 0.0 l/m 3.6 km/h (1 Bft) W-NW 1.00 h 738 W/m 11.3 C 28.1 C
15.06.2006 14:00 29.5 C 33 % 1014.7 hPa 0.0 l/m 4.0 km/h (1 Bft) W 1.00 h 779 W/m 11.4 C 29.5 C
15.06.2006 15:00 30.6 C 33 % 1013.9 hPa 0.0 l/m 4.6 km/h (1 Bft) N-NO 1.00 h 639 W/m 12.4 C 30.6 C
15.06.2006 16:00 30.8 C 31 % 1013.5 hPa 0.0 l/m 3.0 km/h (1 Bft) W 0.93 h 567 W/m 11.6 C 30.8 C
15.06.2006 17:00 31.7 C 27 % 1013.4 hPa 0.0 l/m 7.1 km/h (2 Bft) W 1.00 h 510 W/m 10.0 C 31.7 C
15.06.2006 18:00 31.2 C 30 % 1013.0 hPa 0.0 l/m 4.5 km/h (1 Bft) W 0.77 h 334 W/m 11.5 C 31.2 C
15.06.2006 19:00 30.1 C 34 % 1013.6 hPa 0.0 l/m 5.0 km/h (1 Bft) W 1.00 h 238 W/m 12.6 C 30.1 C
15.06.2006 20:00 28.0 C 39 % 1013.8 hPa 0.0 l/m 1.6 km/h (1 Bft) O-SO 0.75 h 82 W/m 12.6 C 28.0 C
15.06.2006 21:00 25.8 C 42 % 1014.1 hPa 0.0 l/m 1.4 km/h (1 Bft) W-NW 0.00 h 9 W/m 11.8 C 25.8 C
15.06.2006 22:00 24.0 C 44 % 1015.2 hPa 0.0 l/m 0.6 km/h (0 Bft) NW 0.00 h 0 W/m 10.9 C 24.0 C
15.06.2006 23:00 22.2 C 48 % 1015.6 hPa 0.0 l/m 0.3 km/h (0 Bft) N 0.00 h 0 W/m 10.8 C 22.2 C
16.06.2006 00:00 20.6 C 54 % 1015.8 hPa 0.0 l/m 0.4 km/h (0 Bft) O-SO 0.00 h 0 W/m 10.9 C 20.6 C
16.06.2006 01:00 19.0 C 60 % 1016.1 hPa 0.0 l/m 2.7 km/h (1 Bft) O 0.00 h 0 W/m 10.9 C 19.0 C
16.06.2006 02:00 17.8 C 64 % 1017.2 hPa 0.0 l/m 3.5 km/h (1 Bft) O-SO 0.00 h 0 W/m 10.8 C 17.8 C
16.06.2006 03:00 16.7 C 70 % 1017.3 hPa 0.0 l/m 0.1 km/h (0 Bft) O-SO 0.00 h 0 W/m 11.2 C 16.7 C
16.06.2006 04:00 15.8 C 74 % 1017.4 hPa 0.0 l/m 0.0 km/h (0 Bft) N 0.00 h 0 W/m 11.2 C 15.8 C
16.06.2006 05:00 14.7 C 83 % 1017.6 hPa 0.0 l/m 0.4 km/h (0 Bft) O 0.10 h 15 W/m 11.8 C 14.7 C
16.06.2006 06:00 15.2 C 79 % 1017.5 hPa 0.0 l/m 0.0 km/h (0 Bft) N 0.90 h 79 W/m 11.6 C 15.2 C
16.06.2006 07:00 16.6 C 77 % 1017.3 hPa 0.0 l/m 0.0 km/h (0 Bft) N 1.00 h 190 W/m 12.4 C 16.6 C
16.06.2006 08:00 18.3 C 69 % 1017.1 hPa 0.0 l/m 0.0 km/h (0 Bft) N 1.00 h 291 W/m 12.6 C 18.3 C
16.06.2006 09:00 20.3 C 64 % 1016.8 hPa 0.0 l/m 0.0 km/h (0 Bft) N 0.97 h 341 W/m 13.2 C 20.3 C
16.06.2006 10:00 22.8 C 56 % 1016.5 hPa 0.0 l/m 0.1 km/h (0 Bft) N 0.97 h 480 W/m 13.6 C 22.8 C
16.06.2006 11:00 24.4 C 47 % 1015.8 hPa 0.0 l/m 0.6 km/h (0 Bft) SO 0.87 h 514 W/m 12.2 C 24.4 C
16.06.2006 12:00 25.5 C 42 % 1015.8 hPa 0.0 l/m 1.3 km/h (1 Bft) SO 0.83 h 534 W/m 11.5 C 25.5 C
16.06.2006 13:00 25.9 C 41 % 1015.1 hPa 0.0 l/m 2.5 km/h (1 Bft) W 0.30 h 422 W/m 11.6 C 25.9 C
16.06.2006 14:00 27.1 C 36 % 1015.0 hPa 0.0 l/m 7.8 km/h (2 Bft) W 0.97 h 652 W/m 10.7 C 27.1 C
16.06.2006 15:00 27.3 C 36 % 1014.9 hPa 0.0 l/m 8.0 km/h (2 Bft) W 0.47 h 421 W/m 10.9 C 27.3 C
16.06.2006 16:00 26.5 C 39 % 1014.2 hPa 0.0 l/m 3.6 km/h (1 Bft) W 0.35 h 349 W/m 11.5 C 26.5 C
16.06.2006 17:00 26.3 C 39 % 1014.0 hPa 0.0 l/m 9.3 km/h (2 Bft) W 0.17 h 253 W/m 11.3 C 26.3 C
16.06.2006 18:00 24.3 C 47 % 1015.1 hPa 0.7 l/m 7.3 km/h (2 Bft) W-NW 0.00 h 51 W/m 12.1 C 24.3 C
16.06.2006 19:00 21.1 C 75 % 1015.5 hPa 0.0 l/m 9.0 km/h (2 Bft) O-SO 0.00 h 66 W/m 16.5 C 21.1 C
16.06.2006 20:00 20.7 C 78 % 1014.9 hPa 0.0 l/m 4.4 km/h (1 Bft) O-SO 0.00 h 33 W/m 16.7 C 20.7 C
16.06.2006 21:00 19.7 C 80 % 1015.5 hPa 0.0 l/m 2.9 km/h (1 Bft) O 0.03 h 11 W/m 16.1 C 19.7 C
16.06.2006 22:00 19.2 C 81 % 1015.9 hPa 0.0 l/m 3.7 km/h (1 Bft) O-SO 0.00 h 0 W/m 15.9 C 19.2 C
16.06.2006 23:00 18.9 C 86 % 1016.4 hPa 0.0 l/m 1.8 km/h (1 Bft) NW 0.00 h 0 W/m 16.5 C 18.9 C
17.06.2006 00:00 18.3 C 89 % 1016.8 hPa 0.0 l/m 1.5 km/h (1 Bft) O-SO 0.00 h 0 W/m 16.5 C 18.3 C
17.06.2006 01:00 17.8 C 92 % 1017.2 hPa 2.0 l/m 0.3 km/h (0 Bft) O 0.00 h 0 W/m 16.3 C 17.8 C
17.06.2006 02:00 17.4 C 94 % 1017.2 hPa 0.7 l/m 0.0 km/h (0 Bft) N 0.00 h 0 W/m 16.5 C 17.4 C
17.06.2006 03:00 17.2 C 96 % 1017.2 hPa 0.0 l/m 0.0 km/h (0 Bft) N 0.00 h 0 W/m 16.6 C 17.2 C
17.06.2006 04:00 17.1 C 97 % 1017.3 hPa 0.0 l/m 0.0 km/h (0 Bft) N 0.00 h 0 W/m 16.5 C 17.1 C
17.06.2006 05:00 16.9 C 97 % 1017.6 hPa 0.0 l/m 0.9 km/h (0 Bft) N-NW 0.00 h 5 W/m 16.4 C 16.9 C
17.06.2006 06:00 16.8 C 97 % 1018.3 hPa 0.0 l/m 0.1 km/h (0 Bft) NW 0.00 h 28 W/m 16.4 C 16.8 C
17.06.2006 07:00 17.3 C 96 % 1018.3 hPa 0.0 l/m 0.1 km/h (0 Bft) O-SO 0.53 h 143 W/m 16.6 C 17.3 C
17.06.2006 08:00 18.1 C 92 % 1018.2 hPa 0.0 l/m 0.2 km/h (0 Bft) NW 0.53 h 278 W/m 16.7 C 18.1 C
17.06.2006 09:00 19.4 C 83 % 1018.0 hPa 0.0 l/m 0.7 km/h (0 Bft) W-NW 1.00 h 506 W/m 16.5 C 19.4 C
17.06.2006 10:00 21.8 C 72 % 1017.7 hPa 0.0 l/m 1.6 km/h (1 Bft) S 1.00 h 588 W/m 16.5 C 21.8 C
17.06.2006 11:00 23.8 C 57 % 1017.4 hPa 0.0 l/m 10.9 km/h (2 Bft) W 1.00 h 731 W/m 14.7 C 23.8 C
17.06.2006 12:00 25.5 C 49 % 1016.6 hPa 0.0 l/m 14.0 km/h (3 Bft) W 1.00 h 796 W/m 14.1 C 25.5 C
17.06.2006 13:00 26.7 C 49 % 1016.0 hPa 0.0 l/m 6.6 km/h (2 Bft) W-NW 0.95 h 772 W/m 15.1 C 26.7 C
17.06.2006 14:00 27.9 C 46 % 1015.9 hPa 0.0 l/m 16.3 km/h (3 Bft) W-NW 1.00 h 789 W/m 15.1 C 27.9 C
17.06.2006 15:00 28.1 C 45 % 1014.8 hPa 0.0 l/m 12.9 km/h (3 Bft) W-NW 0.90 h 566 W/m 15.2 C 28.1 C
17.06.2006 16:00 26.7 C 50 % 1015.0 hPa 0.0 l/m 9.5 km/h (2 Bft) W 0.15 h 263 W/m 15.4 C 26.7 C
17.06.2006 17:00 25.5 C 53 % 1015.2 hPa 0.0 l/m 6.6 km/h (2 Bft) W-NW 0.00 h 150 W/m 15.3 C 25.5 C
17.06.2006 18:00 25.5 C 54 % 1014.8 hPa 0.0 l/m 1.5 km/h (1 Bft) W-NW 0.47 h 224 W/m 15.6 C 25.5 C
17.06.2006 19:00 24.8 C 55 % 1015.2 hPa 0.0 l/m 1.4 km/h (1 Bft) S-SW 0.10 h 99 W/m 15.0 C 24.8 C
17.06.2006 20:00 24.5 C 56 % 1015.3 hPa 0.0 l/m 0.0 km/h (0 Bft) N 1.00 h 96 W/m 15.2 C 24.5 C
17.06.2006 21:00 22.2 C 59 % 1016.1 hPa 0.0 l/m 1.8 km/h (1 Bft) S 0.25 h 17 W/m 13.8 C 22.2 C
17.06.2006 22:00 21.0 C 62 % 1016.9 hPa 0.0 l/m 4.8 km/h (1 Bft) S-SO 0.00 h 0 W/m 13.4 C 21.0 C
17.06.2006 23:00 21.4 C 60 % 1017.7 hPa 0.0 l/m 12.3 km/h (3 Bft) W-SW 0.00 h 0 W/m 13.2 C 21.4 C
18.06.2006 00:00 20.7 C 60 % 1017.8 hPa 0.0 l/m 4.0 km/h (1 Bft) W-SW 0.00 h 0 W/m 12.5 C 20.7 C
18.06.2006 01:00 20.1 C 63 % 1018.5 hPa 0.0 l/m 2.1 km/h (1 Bft) S-SO 0.00 h 0 W/m 12.8 C 20.1 C
18.06.2006 02:00 19.4 C 68 % 1019.0 hPa 0.0 l/m 1.8 km/h (1 Bft) SO 0.00 h 0 W/m 13.4 C 19.4 C
18.06.2006 03:00 18.6 C 75 % 1018.5 hPa 0.0 l/m 0.7 km/h (0 Bft) O-SO 0.00 h 0 W/m 14.1 C 18.6 C
18.06.2006 04:00 18.4 C 78 % 1018.1 hPa 0.0 l/m 0.0 km/h (0 Bft) N 0.00 h 0 W/m 14.5 C 18.4 C
18.06.2006 05:00 17.8 C 82 % 1018.2 hPa 0.0 l/m 1.6 km/h (1 Bft) O-SO 0.00 h 10 W/m 14.7 C 17.8 C
18.06.2006 06:00 16.9 C 85 % 1018.3 hPa 0.0 l/m 0.0 km/h (0 Bft) N 0.00 h 41 W/m 14.4 C 16.9 C
18.06.2006 07:00 17.6 C 84 % 1018.2 hPa 0.0 l/m 0.0 km/h (0 Bft) N 0.87 h 235 W/m 14.9 C 17.6 C
18.06.2006 08:00 19.2 C 77 % 1018.0 hPa 0.0 l/m 0.0 km/h (0 Bft) N 1.00 h 406 W/m 15.0 C 19.2 C
18.06.2006 09:00 21.2 C 66 % 1017.1 hPa 0.0 l/m 0.8 km/h (0 Bft) W-NW 1.00 h 540 W/m 14.5 C 21.2 C
18.06.2006 10:00 23.1 C 61 % 1016.5 hPa 0.0 l/m 1.4 km/h (1 Bft) W-NW 1.00 h 656 W/m 15.1 C 23.1 C
18.06.2006 11:00 25.0 C 56 % 1016.3 hPa 0.0 l/m 1.4 km/h (1 Bft) W-SW 1.00 h 746 W/m 15.5 C 25.0 C
18.06.2006 12:00 26.9 C 43 % 1016.0 hPa 0.0 l/m 4.3 km/h (1 Bft) W-NW 1.00 h 799 W/m 13.0 C 26.9 C
18.06.2006 13:00 28.6 C 36 % 1014.8 hPa 0.0 l/m 3.1 km/h (1 Bft) W-NW 1.00 h 812 W/m 12.1 C 28.6 C
18.06.2006 14:00 30.2 C 34 % 1014.2 hPa 0.0 l/m 5.5 km/h (1 Bft) O-SO 1.00 h 793 W/m 12.7 C 30.2 C
18.06.2006 15:00 30.9 C 33 % 1013.5 hPa 0.0 l/m 5.2 km/h (1 Bft) W 1.00 h 737 W/m 12.9 C 30.9 C
18.06.2006 16:00 31.7 C 30 % 1012.4 hPa 0.0 l/m 5.4 km/h (1 Bft) W 1.00 h 645 W/m 11.7 C 31.7 C
18.06.2006 17:00 31.6 C 29 % 1012.4 hPa 0.0 l/m 6.4 km/h (2 Bft) NW 0.83 h 464 W/m 11.3 C 31.6 C
18.06.2006 18:00 27.4 C 39 % 1013.7 hPa 0.0 l/m 22.9 km/h (4 Bft) W-SW 0.07 h 87 W/m 12.2 C 27.4 C
18.06.2006 19:00 22.9 C 53 % 1016.3 hPa 0.0 l/m 29.6 km/h (5 Bft) W 0.00 h 5 W/m 12.4 C 22.9 C
18.06.2006 20:00 18.8 C 89 % 1015.8 hPa 0.7 l/m 11.4 km/h (2 Bft) NW 0.00 h 5 W/m 17.0 C 18.8 C
18.06.2006 21:00 18.4 C 87 % 1016.0 hPa 0.0 l/m 4.5 km/h (1 Bft) O-SO 0.00 h 2 W/m 16.2 C 18.4 C
18.06.2006 22:00 18.0 C 85 % 1016.8 hPa 0.0 l/m 0.2 km/h (0 Bft) O-SO 0.00 h 0 W/m 15.5 C 18.0 C
18.06.2006 23:00 17.5 C 89 % 1017.2 hPa 0.0 l/m 0.4 km/h (0 Bft) O-SO 0.00 h 0 W/m 15.5 C 17.5 C
Min-Datum _ 12.06.06 12.06.06 18.06.06 - 12.06.06 - - - 12.06.06 12.06.06
_ Min-Zeit 06:03 16:07 16:51 - 00:08 - - - 16:09 06:03
Minimum _ 10.8 C 20 % 1012.2 hPa - 0.0 km/h (0 Bft) - - - 2.8 C 10.8 C
Max-Datum _ 18.06.06 17.06.06 12.06.06 17.06.06 18.06.06 - 12.06.06 16.06.06 18.06.06 18.06.06
_ Max-Zeit 16:51 01:30 07:20 01:10 18:47 - 07:03 14:28 20:38 16:51
Maximum _ 32.5 C 97 % 1026.2 hPa 2.0 l/m 57.7 km/h
W-SW (7 Bft)
- 0.05 h 885 W/m 17.8 C 32.5 C
Durchschnitt _ 21.9 C 60 % 1017.9 hPa #3.9 l/m 2.5 km/h (1 Bft) W #83:58 h 395 W/m 12.7 C 21.9 C
© Kaiko 2006